sensor_id;sensor_type;location;lat;lon;timestamp;temperature;humidity
17621;DHT22;8929;51.008;6.804;2023-03-03T00:09:26;3.30;1.00
17621;DHT22;8929;51.008;6.804;2023-03-03T00:11:53;3.20;1.00
17621;DHT22;8929;51.008;6.804;2023-03-03T00:14:25;3.20;1.00
17621;DHT22;8929;51.008;6.804;2023-03-03T00:16:52;3.20;1.00
17621;DHT22;8929;51.008;6.804;2023-03-03T00:19:18;3.20;1.00
17621;DHT22;8929;51.008;6.804;2023-03-03T00:21:45;3.10;1.00
17621;DHT22;8929;51.008;6.804;2023-03-03T00:24:21;3.10;1.00
17621;DHT22;8929;51.008;6.804;2023-03-03T00:26:48;3.10;1.00
17621;DHT22;8929;51.008;6.804;2023-03-03T00:29:25;3.10;1.00
17621;DHT22;8929;51.008;6.804;2023-03-03T00:31:51;3.00;1.00
17621;DHT22;8929;51.008;6.804;2023-03-03T00:36:42;3.00;1.00
17621;DHT22;8929;51.008;6.804;2023-03-03T00:41:43;2.90;1.00
17621;DHT22;8929;51.008;6.804;2023-03-03T00:46:53;2.80;1.00
17621;DHT22;8929;51.008;6.804;2023-03-03T00:49:21;2.70;1.00
17621;DHT22;8929;51.008;6.804;2023-03-03T00:51:49;2.70;1.00
17621;DHT22;8929;51.008;6.804;2023-03-03T00:54:14;2.60;1.00
17621;DHT22;8929;51.008;6.804;2023-03-03T00:56:39;2.60;1.00
17621;DHT22;8929;51.008;6.804;2023-03-03T00:59:05;2.50;1.00
17621;DHT22;8929;51.008;6.804;2023-03-03T01:01:31;2.50;1.00
17621;DHT22;8929;51.008;6.804;2023-03-03T01:03:57;2.50;1.00
17621;DHT22;8929;51.008;6.804;2023-03-03T01:06:23;2.50;1.00
17621;DHT22;8929;51.008;6.804;2023-03-03T01:08:48;2.40;1.00
17621;DHT22;8929;51.008;6.804;2023-03-03T01:11:23;2.40;1.00
17621;DHT22;8929;51.008;6.804;2023-03-03T01:13:50;2.40;1.00
17621;DHT22;8929;51.008;6.804;2023-03-03T01:16:16;2.30;1.00
17621;DHT22;8929;51.008;6.804;2023-03-03T01:18:42;2.30;1.00
17621;DHT22;8929;51.008;6.804;2023-03-03T01:21:08;2.20;1.00
17621;DHT22;8929;51.008;6.804;2023-03-03T01:23:34;2.20;1.00
17621;DHT22;8929;51.008;6.804;2023-03-03T01:26:00;2.20;1.00
17621;DHT22;8929;51.008;6.804;2023-03-03T01:28:25;2.20;1.00
17621;DHT22;8929;51.008;6.804;2023-03-03T01:30:51;2.10;1.00
17621;DHT22;8929;51.008;6.804;2023-03-03T01:33:16;2.10;1.00
17621;DHT22;8929;51.008;6.804;2023-03-03T01:35:43;2.10;1.00
17621;DHT22;8929;51.008;6.804;2023-03-03T01:38:08;2.10;1.00
17621;DHT22;8929;51.008;6.804;2023-03-03T01:40:34;2.00;1.00
17621;DHT22;8929;51.008;6.804;2023-03-03T01:42:59;2.00;1.00
17621;DHT22;8929;51.008;6.804;2023-03-03T01:45:27;2.00;1.00
17621;DHT22;8929;51.008;6.804;2023-03-03T01:47:58;2.00;1.00
17621;DHT22;8929;51.008;6.804;2023-03-03T01:50:30;2.00;1.00
17621;DHT22;8929;51.008;6.804;2023-03-03T01:52:57;2.00;1.00
17621;DHT22;8929;51.008;6.804;2023-03-03T01:55:33;2.00;1.00
17621;DHT22;8929;51.008;6.804;2023-03-03T01:58:20;1.90;1.00
17621;DHT22;8929;51.008;6.804;2023-03-03T02:00:52;1.90;1.00
17621;DHT22;8929;51.008;6.804;2023-03-03T02:03:19;1.90;1.00
17621;DHT22;8929;51.008;6.804;2023-03-03T02:05:45;1.90;1.00
17621;DHT22;8929;51.008;6.804;2023-03-03T02:08:11;2.00;1.00
17621;DHT22;8929;51.008;6.804;2023-03-03T02:10:40;2.00;1.00
17621;DHT22;8929;51.008;6.804;2023-03-03T02:13:06;2.20;1.00
17621;DHT22;8929;51.008;6.804;2023-03-03T02:15:32;2.20;1.00
17621;DHT22;8929;51.008;6.804;2023-03-03T02:18:02;2.30;1.00
17621;DHT22;8929;51.008;6.804;2023-03-03T02:20:35;2.40;1.00
17621;DHT22;8929;51.008;6.804;2023-03-03T02:25:36;2.60;1.00
17621;DHT22;8929;51.008;6.804;2023-03-03T02:28:03;2.80;1.00
17621;DHT22;8929;51.008;6.804;2023-03-03T02:30:29;2.90;1.00
17621;DHT22;8929;51.008;6.804;2023-03-03T02:32:54;3.00;1.00
17621;DHT22;8929;51.008;6.804;2023-03-03T02:35:24;3.10;1.00
17621;DHT22;8929;51.008;6.804;2023-03-03T02:37:49;3.20;1.00
17621;DHT22;8929;51.008;6.804;2023-03-03T02:40:16;3.30;1.00
17621;DHT22;8929;51.008;6.804;2023-03-03T02:42:43;3.30;1.00
17621;DHT22;8929;51.008;6.804;2023-03-03T02:45:09;3.40;1.00
17621;DHT22;8929;51.008;6.804;2023-03-03T02:47:35;3.50;1.00
17621;DHT22;8929;51.008;6.804;2023-03-03T02:50:00;3.50;1.00
17621;DHT22;8929;51.008;6.804;2023-03-03T02:52:26;3.60;1.00
17621;DHT22;8929;51.008;6.804;2023-03-03T02:54:51;3.60;1.00
17621;DHT22;8929;51.008;6.804;2023-03-03T02:57:17;3.60;1.00
17621;DHT22;8929;51.008;6.804;2023-03-03T02:59:42;3.60;1.00
17621;DHT22;8929;51.008;6.804;2023-03-03T03:02:08;3.70;1.00
17621;DHT22;8929;51.008;6.804;2023-03-03T03:04:33;3.70;1.00
17621;DHT22;8929;51.008;6.804;2023-03-03T03:06:59;3.80;1.00
17621;DHT22;8929;51.008;6.804;2023-03-03T03:09:24;3.80;1.00
17621;DHT22;8929;51.008;6.804;2023-03-03T03:11:50;3.80;1.00
17621;DHT22;8929;51.008;6.804;2023-03-03T03:14:16;3.80;1.00
17621;DHT22;8929;51.008;6.804;2023-03-03T03:16:42;3.80;1.00
17621;DHT22;8929;51.008;6.804;2023-03-03T03:19:07;3.80;1.00
17621;DHT22;8929;51.008;6.804;2023-03-03T03:21:33;3.80;1.00
17621;DHT22;8929;51.008;6.804;2023-03-03T03:23:59;3.80;1.00
17621;DHT22;8929;51.008;6.804;2023-03-03T03:26:24;3.80;1.00
17621;DHT22;8929;51.008;6.804;2023-03-03T03:28:50;3.80;1.00
17621;DHT22;8929;51.008;6.804;2023-03-03T03:31:16;3.80;1.00
17621;DHT22;8929;51.008;6.804;2023-03-03T03:33:42;3.90;1.00
17621;DHT22;8929;51.008;6.804;2023-03-03T03:36:08;3.80;1.00
17621;DHT22;8929;51.008;6.804;2023-03-03T03:38:34;3.90;1.00
17621;DHT22;8929;51.008;6.804;2023-03-03T03:41:01;3.90;1.00
17621;DHT22;8929;51.008;6.804;2023-03-03T03:43:26;3.90;1.00
17621;DHT22;8929;51.008;6.804;2023-03-03T03:45:52;3.90;1.00
17621;DHT22;8929;51.008;6.804;2023-03-03T03:48:17;3.90;1.00
17621;DHT22;8929;51.008;6.804;2023-03-03T03:50:45;3.90;1.00
17621;DHT22;8929;51.008;6.804;2023-03-03T03:53:11;3.90;1.00
17621;DHT22;8929;51.008;6.804;2023-03-03T03:55:36;3.90;1.00
17621;DHT22;8929;51.008;6.804;2023-03-03T03:58:02;4.00;1.00
17621;DHT22;8929;51.008;6.804;2023-03-03T04:00:27;3.90;1.00
17621;DHT22;8929;51.008;6.804;2023-03-03T04:02:53;3.90;1.00
17621;DHT22;8929;51.008;6.804;2023-03-03T04:05:18;3.90;1.00
17621;DHT22;8929;51.008;6.804;2023-03-03T04:07:44;3.90;1.00
17621;DHT22;8929;51.008;6.804;2023-03-03T04:10:09;3.90;1.00
17621;DHT22;8929;51.008;6.804;2023-03-03T04:12:35;3.90;1.00
17621;DHT22;8929;51.008;6.804;2023-03-03T04:15:07;3.90;1.00
17621;DHT22;8929;51.008;6.804;2023-03-03T04:17:33;3.90;1.00
17621;DHT22;8929;51.008;6.804;2023-03-03T04:19:58;3.90;1.00
17621;DHT22;8929;51.008;6.804;2023-03-03T04:22:25;3.90;1.00
17621;DHT22;8929;51.008;6.804;2023-03-03T04:24:50;3.90;1.00
17621;DHT22;8929;51.008;6.804;2023-03-03T04:27:16;3.90;1.00
17621;DHT22;8929;51.008;6.804;2023-03-03T04:29:41;3.90;1.00
17621;DHT22;8929;51.008;6.804;2023-03-03T04:32:07;3.90;1.00
17621;DHT22;8929;51.008;6.804;2023-03-03T04:34:32;3.80;1.00
17621;DHT22;8929;51.008;6.804;2023-03-03T04:36:58;3.90;1.00
17621;DHT22;8929;51.008;6.804;2023-03-03T04:39:23;3.90;1.00
17621;DHT22;8929;51.008;6.804;2023-03-03T04:41:49;3.90;1.00
17621;DHT22;8929;51.008;6.804;2023-03-03T04:44:14;3.90;1.00
17621;DHT22;8929;51.008;6.804;2023-03-03T04:46:40;3.90;1.00
17621;DHT22;8929;51.008;6.804;2023-03-03T04:49:05;3.90;1.00
17621;DHT22;8929;51.008;6.804;2023-03-03T04:51:33;3.90;1.00
17621;DHT22;8929;51.008;6.804;2023-03-03T04:53:58;3.90;1.00
17621;DHT22;8929;51.008;6.804;2023-03-03T04:56:24;3.90;1.00
17621;DHT22;8929;51.008;6.804;2023-03-03T04:58:49;3.90;1.00
17621;DHT22;8929;51.008;6.804;2023-03-03T05:01:14;3.80;1.00
17621;DHT22;8929;51.008;6.804;2023-03-03T05:03:40;3.80;1.00
17621;DHT22;8929;51.008;6.804;2023-03-03T05:06:06;3.90;1.00
17621;DHT22;8929;51.008;6.804;2023-03-03T05:08:31;3.90;1.00
17621;DHT22;8929;51.008;6.804;2023-03-03T05:10:57;3.90;1.00
17621;DHT22;8929;51.008;6.804;2023-03-03T05:13:24;3.90;1.00
17621;DHT22;8929;51.008;6.804;2023-03-03T05:15:52;3.90;1.00
17621;DHT22;8929;51.008;6.804;2023-03-03T05:18:19;3.90;1.00
17621;DHT22;8929;51.008;6.804;2023-03-03T05:20:45;3.90;1.00
17621;DHT22;8929;51.008;6.804;2023-03-03T05:23:10;3.90;1.00
17621;DHT22;8929;51.008;6.804;2023-03-03T05:25:36;3.80;1.00
17621;DHT22;8929;51.008;6.804;2023-03-03T05:28:02;3.80;1.00
17621;DHT22;8929;51.008;6.804;2023-03-03T05:30:28;3.80;1.00
17621;DHT22;8929;51.008;6.804;2023-03-03T05:32:54;3.80;1.00
17621;DHT22;8929;51.008;6.804;2023-03-03T05:35:19;3.80;1.00
17621;DHT22;8929;51.008;6.804;2023-03-03T05:37:45;3.80;1.00
17621;DHT22;8929;51.008;6.804;2023-03-03T05:40:15;3.80;1.00
17621;DHT22;8929;51.008;6.804;2023-03-03T05:42:40;3.80;1.00
17621;DHT22;8929;51.008;6.804;2023-03-03T05:45:06;3.80;99.90
17621;DHT22;8929;51.008;6.804;2023-03-03T05:47:32;3.80;1.00
17621;DHT22;8929;51.008;6.804;2023-03-03T05:49:57;3.80;1.00
17621;DHT22;8929;51.008;6.804;2023-03-03T05:52:22;3.80;1.00
17621;DHT22;8929;51.008;6.804;2023-03-03T05:54:51;3.70;1.00
17621;DHT22;8929;51.008;6.804;2023-03-03T05:57:16;3.70;1.00
17621;DHT22;8929;51.008;6.804;2023-03-03T05:59:42;3.70;1.00
17621;DHT22;8929;51.008;6.804;2023-03-03T06:02:07;3.70;1.00
17621;DHT22;8929;51.008;6.804;2023-03-03T06:04:33;3.70;1.00
17621;DHT22;8929;51.008;6.804;2023-03-03T06:06:58;3.70;1.00
17621;DHT22;8929;51.008;6.804;2023-03-03T06:09:24;3.80;1.00
17621;DHT22;8929;51.008;6.804;2023-03-03T06:11:50;3.70;1.00
17621;DHT22;8929;51.008;6.804;2023-03-03T06:14:21;3.70;1.00
17621;DHT22;8929;51.008;6.804;2023-03-03T06:16:46;3.70;1.00
17621;DHT22;8929;51.008;6.804;2023-03-03T06:19:12;3.80;1.00
17621;DHT22;8929;51.008;6.804;2023-03-03T06:21:38;3.80;1.00
17621;DHT22;8929;51.008;6.804;2023-03-03T06:24:04;3.80;1.00
17621;DHT22;8929;51.008;6.804;2023-03-03T06:26:30;3.80;99.90
17621;DHT22;8929;51.008;6.804;2023-03-03T06:28:55;3.80;1.00
17621;DHT22;8929;51.008;6.804;2023-03-03T06:31:21;3.80;1.00
17621;DHT22;8929;51.008;6.804;2023-03-03T06:33:46;3.90;99.90
17621;DHT22;8929;51.008;6.804;2023-03-03T06:36:11;3.90;99.90
17621;DHT22;8929;51.008;6.804;2023-03-03T06:38:37;3.90;99.90
17621;DHT22;8929;51.008;6.804;2023-03-03T06:41:03;3.90;99.90
17621;DHT22;8929;51.008;6.804;2023-03-03T06:43:32;3.90;99.90
17621;DHT22;8929;51.008;6.804;2023-03-03T06:45:57;4.00;99.90
17621;DHT22;8929;51.008;6.804;2023-03-03T06:48:23;3.90;99.90
17621;DHT22;8929;51.008;6.804;2023-03-03T06:50:48;3.90;99.90
17621;DHT22;8929;51.008;6.804;2023-03-03T06:53:14;3.90;99.90
17621;DHT22;8929;51.008;6.804;2023-03-03T06:55:40;3.90;99.90
17621;DHT22;8929;51.008;6.804;2023-03-03T06:58:18;3.90;99.90
17621;DHT22;8929;51.008;6.804;2023-03-03T07:00:45;4.00;99.90
17621;DHT22;8929;51.008;6.804;2023-03-03T07:03:15;4.00;99.90
17621;DHT22;8929;51.008;6.804;2023-03-03T07:05:41;4.00;99.90
17621;DHT22;8929;51.008;6.804;2023-03-03T07:08:12;4.00;99.90
17621;DHT22;8929;51.008;6.804;2023-03-03T07:10:38;4.10;99.90
17621;DHT22;8929;51.008;6.804;2023-03-03T07:13:23;4.10;99.90
17621;DHT22;8929;51.008;6.804;2023-03-03T07:15:49;4.20;99.90
17621;DHT22;8929;51.008;6.804;2023-03-03T07:20:57;4.20;99.90
17621;DHT22;8929;51.008;6.804;2023-03-03T07:23:25;4.30;99.90
17621;DHT22;8929;51.008;6.804;2023-03-03T07:25:50;4.30;99.90
17621;DHT22;8929;51.008;6.804;2023-03-03T07:28:34;4.30;99.90
17621;DHT22;8929;51.008;6.804;2023-03-03T07:31:00;4.30;99.90
17621;DHT22;8929;51.008;6.804;2023-03-03T07:33:26;4.30;99.90
17621;DHT22;8929;51.008;6.804;2023-03-03T07:35:54;4.30;99.90
17621;DHT22;8929;51.008;6.804;2023-03-03T07:38:30;4.40;64.00
17621;DHT22;8929;51.008;6.804;2023-03-03T07:40:59;4.40;17.10
17621;DHT22;8929;51.008;6.804;2023-03-03T07:43:39;4.40;1.00
17621;DHT22;8929;51.008;6.804;2023-03-03T07:48:42;4.50;1.00
17621;DHT22;8929;51.008;6.804;2023-03-03T07:51:12;4.50;1.00
17621;DHT22;8929;51.008;6.804;2023-03-03T07:53:40;4.50;1.00
17621;DHT22;8929;51.008;6.804;2023-03-03T07:59:01;4.60;1.00
17621;DHT22;8929;51.008;6.804;2023-03-03T08:03:55;4.70;1.00
17621;DHT22;8929;51.008;6.804;2023-03-03T08:11:36;4.70;99.90
17621;DHT22;8929;51.008;6.804;2023-03-03T08:14:07;4.70;99.90
17621;DHT22;8929;51.008;6.804;2023-03-03T08:16:35;4.80;99.90
17621;DHT22;8929;51.008;6.804;2023-03-03T08:19:01;4.90;91.30
17621;DHT22;8929;51.008;6.804;2023-03-03T08:21:27;4.90;1.00
17621;DHT22;8929;51.008;6.804;2023-03-03T08:23:52;4.90;99.90
17621;DHT22;8929;51.008;6.804;2023-03-03T08:26:18;5.00;99.90
17621;DHT22;8929;51.008;6.804;2023-03-03T08:28:44;5.00;99.90
17621;DHT22;8929;51.008;6.804;2023-03-03T08:31:10;5.10;99.90
17621;DHT22;8929;51.008;6.804;2023-03-03T08:33:36;5.00;87.30
17621;DHT22;8929;51.008;6.804;2023-03-03T08:36:01;5.10;99.90
17621;DHT22;8929;51.008;6.804;2023-03-03T08:38:27;5.20;1.00
17621;DHT22;8929;51.008;6.804;2023-03-03T08:40:52;5.20;1.00
17621;DHT22;8929;51.008;6.804;2023-03-03T08:43:18;5.20;99.90
17621;DHT22;8929;51.008;6.804;2023-03-03T08:45:46;5.30;99.90
17621;DHT22;8929;51.008;6.804;2023-03-03T08:48:12;5.30;92.40
17621;DHT22;8929;51.008;6.804;2023-03-03T08:50:38;5.40;99.90
17621;DHT22;8929;51.008;6.804;2023-03-03T08:53:04;5.30;1.00
17621;DHT22;8929;51.008;6.804;2023-03-03T08:55:30;5.40;1.00
17621;DHT22;8929;51.008;6.804;2023-03-03T08:57:56;5.40;1.00
17621;DHT22;8929;51.008;6.804;2023-03-03T09:00:21;5.40;1.00
17621;DHT22;8929;51.008;6.804;2023-03-03T09:02:47;5.50;1.00
17621;DHT22;8929;51.008;6.804;2023-03-03T09:05:14;5.50;1.00
17621;DHT22;8929;51.008;6.804;2023-03-03T09:07:40;5.50;99.90
17621;DHT22;8929;51.008;6.804;2023-03-03T09:10:06;5.50;99.90
17621;DHT22;8929;51.008;6.804;2023-03-03T09:12:33;5.50;99.90
17621;DHT22;8929;51.008;6.804;2023-03-03T09:14:59;5.60;88.10
17621;DHT22;8929;51.008;6.804;2023-03-03T09:17:33;5.60;20.00
17621;DHT22;8929;51.008;6.804;2023-03-03T09:20:03;5.70;99.90
17621;DHT22;8929;51.008;6.804;2023-03-03T09:22:35;5.80;1.00
17621;DHT22;8929;51.008;6.804;2023-03-03T09:25:02;5.80;1.00
17621;DHT22;8929;51.008;6.804;2023-03-03T09:27:38;5.90;1.00
17621;DHT22;8929;51.008;6.804;2023-03-03T09:30:20;6.00;1.00
17621;DHT22;8929;51.008;6.804;2023-03-03T09:32:51;6.10;99.90
17621;DHT22;8929;51.008;6.804;2023-03-03T09:35:34;6.10;99.90
17621;DHT22;8929;51.008;6.804;2023-03-03T09:38:01;6.20;99.90
17621;DHT22;8929;51.008;6.804;2023-03-03T09:43:16;6.10;99.90
17621;DHT22;8929;51.008;6.804;2023-03-03T09:48:28;6.20;99.90
17621;DHT22;8929;51.008;6.804;2023-03-03T09:55:49;6.30;96.30
17621;DHT22;8929;51.008;6.804;2023-03-03T10:05:51;6.40;1.00
17621;DHT22;8929;51.008;6.804;2023-03-03T10:16:00;6.20;1.00
17621;DHT22;8929;51.008;6.804;2023-03-03T10:18:40;6.00;1.00
17621;DHT22;8929;51.008;6.804;2023-03-03T10:23:54;6.30;1.00
17621;DHT22;8929;51.008;6.804;2023-03-03T10:26:34;6.20;1.00
17621;DHT22;8929;51.008;6.804;2023-03-03T10:39:44;6.50;1.00
17621;DHT22;8929;51.008;6.804;2023-03-03T10:49:55;6.40;1.00
17621;DHT22;8929;51.008;6.804;2023-03-03T10:55:17;6.80;1.00
17621;DHT22;8929;51.008;6.804;2023-03-03T10:57:55;6.90;1.00
17621;DHT22;8929;51.008;6.804;2023-03-03T11:00:29;7.00;99.90
17621;DHT22;8929;51.008;6.804;2023-03-03T11:13:17;6.80;99.90
17621;DHT22;8929;51.008;6.804;2023-03-03T11:15:46;6.80;99.90
17621;DHT22;8929;51.008;6.804;2023-03-03T11:26:53;6.40;99.90
17621;DHT22;8929;51.008;6.804;2023-03-03T11:37:02;6.30;99.90
17621;DHT22;8929;51.008;6.804;2023-03-03T11:39:29;6.20;99.90
17621;DHT22;8929;51.008;6.804;2023-03-03T11:42:00;6.40;1.00
17621;DHT22;8929;51.008;6.804;2023-03-03T11:44:32;6.60;1.00
17621;DHT22;8929;51.008;6.804;2023-03-03T11:47:02;6.80;99.90
17621;DHT22;8929;51.008;6.804;2023-03-03T12:05:06;7.90;57.90
17621;DHT22;8929;51.008;6.804;2023-03-03T12:07:42;8.00;27.80
17621;DHT22;8929;51.008;6.804;2023-03-03T12:10:16;8.10;1.00
17621;DHT22;8929;51.008;6.804;2023-03-03T12:12:44;7.90;1.00
17621;DHT22;8929;51.008;6.804;2023-03-03T12:23:18;7.30;1.00
17621;DHT22;8929;51.008;6.804;2023-03-03T12:28:23;7.50;2.10
17621;DHT22;8929;51.008;6.804;2023-03-03T12:31:09;7.50;1.00
17621;DHT22;8929;51.008;6.804;2023-03-03T12:34:01;7.40;1.00
17621;DHT22;8929;51.008;6.804;2023-03-03T12:36:43;7.10;1.00
17621;DHT22;8929;51.008;6.804;2023-03-03T12:42:07;7.40;1.00
17621;DHT22;8929;51.008;6.804;2023-03-03T12:47:15;7.50;1.00
17621;DHT22;8929;51.008;6.804;2023-03-03T12:50:29;7.50;1.00
17621;DHT22;8929;51.008;6.804;2023-03-03T12:55:40;7.50;1.00
17621;DHT22;8929;51.008;6.804;2023-03-03T13:00:42;7.50;1.00
17621;DHT22;8929;51.008;6.804;2023-03-03T13:05:47;7.60;1.00
17621;DHT22;8929;51.008;6.804;2023-03-03T13:11:00;7.80;1.00
17621;DHT22;8929;51.008;6.804;2023-03-03T13:13:48;8.00;1.00
17621;DHT22;8929;51.008;6.804;2023-03-03T13:16:16;8.20;1.00
17621;DHT22;8929;51.008;6.804;2023-03-03T13:19:03;8.20;1.00
17621;DHT22;8929;51.008;6.804;2023-03-03T13:21:33;8.00;1.00
17621;DHT22;8929;51.008;6.804;2023-03-03T13:24:03;8.20;1.00
17621;DHT22;8929;51.008;6.804;2023-03-03T13:26:35;8.10;1.00
17621;DHT22;8929;51.008;6.804;2023-03-03T13:29:03;8.00;1.00
17621;DHT22;8929;51.008;6.804;2023-03-03T13:31:36;8.10;1.00
17621;DHT22;8929;51.008;6.804;2023-03-03T13:34:03;8.30;1.00
17621;DHT22;8929;51.008;6.804;2023-03-03T13:39:17;8.40;1.00
17621;DHT22;8929;51.008;6.804;2023-03-03T13:41:46;8.40;1.00
17621;DHT22;8929;51.008;6.804;2023-03-03T13:44:23;8.50;1.00
17621;DHT22;8929;51.008;6.804;2023-03-03T13:49:54;8.30;1.00
17621;DHT22;8929;51.008;6.804;2023-03-03T13:52:23;8.20;1.00
17621;DHT22;8929;51.008;6.804;2023-03-03T13:57:41;8.50;1.00
17621;DHT22;8929;51.008;6.804;2023-03-03T14:00:18;8.30;1.00
17621;DHT22;8929;51.008;6.804;2023-03-03T14:10:24;9.30;1.00
17621;DHT22;8929;51.008;6.804;2023-03-03T14:12:59;9.30;1.00
17621;DHT22;8929;51.008;6.804;2023-03-03T14:15:49;9.60;1.00
17621;DHT22;8929;51.008;6.804;2023-03-03T14:21:02;9.60;1.00
17621;DHT22;8929;51.008;6.804;2023-03-03T14:26:13;9.00;1.00
17621;DHT22;8929;51.008;6.804;2023-03-03T14:28:45;9.00;1.00
17621;DHT22;8929;51.008;6.804;2023-03-03T14:31:16;9.00;1.00
17621;DHT22;8929;51.008;6.804;2023-03-03T14:33:55;9.20;1.00
17621;DHT22;8929;51.008;6.804;2023-03-03T14:36:26;9.40;1.00
17621;DHT22;8929;51.008;6.804;2023-03-03T14:38:52;9.30;1.00
17621;DHT22;8929;51.008;6.804;2023-03-03T14:41:19;9.20;1.00
17621;DHT22;8929;51.008;6.804;2023-03-03T14:43:55;9.10;1.00
17621;DHT22;8929;51.008;6.804;2023-03-03T14:46:33;8.90;1.00
17621;DHT22;8929;51.008;6.804;2023-03-03T14:49:27;8.80;1.00
17621;DHT22;8929;51.008;6.804;2023-03-03T14:51:59;9.00;1.00
17621;DHT22;8929;51.008;6.804;2023-03-03T14:54:26;9.20;1.00
17621;DHT22;8929;51.008;6.804;2023-03-03T14:59:36;9.50;1.00
17621;DHT22;8929;51.008;6.804;2023-03-03T15:04:41;9.10;1.00
17621;DHT22;8929;51.008;6.804;2023-03-03T15:09:48;8.70;1.00
17621;DHT22;8929;51.008;6.804;2023-03-03T15:12:21;8.80;1.00
17621;DHT22;8929;51.008;6.804;2023-03-03T15:14:49;8.70;1.00
17621;DHT22;8929;51.008;6.804;2023-03-03T15:17:19;8.80;1.00
17621;DHT22;8929;51.008;6.804;2023-03-03T15:55:23;8.50;1.00
17621;DHT22;8929;51.008;6.804;2023-03-03T21:45:16;5.20;1.00
17621;DHT22;8929;51.008;6.804;2023-03-03T21:48:33;5.20;1.00
17621;DHT22;8929;51.008;6.804;2023-03-03T21:54:25;5.30;1.00
17621;DHT22;8929;51.008;6.804;2023-03-03T21:57:03;5.30;1.00
17621;DHT22;8929;51.008;6.804;2023-03-03T21:59:29;5.30;99.90
17621;DHT22;8929;51.008;6.804;2023-03-03T22:01:54;5.30;99.90
17621;DHT22;8929;51.008;6.804;2023-03-03T22:04:20;5.40;99.90
17621;DHT22;8929;51.008;6.804;2023-03-03T22:06:45;5.30;1.00
17621;DHT22;8929;51.008;6.804;2023-03-03T22:09:11;5.40;1.00
17621;DHT22;8929;51.008;6.804;2023-03-03T22:11:36;5.30;1.00
17621;DHT22;8929;51.008;6.804;2023-03-03T22:14:04;5.40;99.90
17621;DHT22;8929;51.008;6.804;2023-03-03T22:16:30;5.40;1.00
17621;DHT22;8929;51.008;6.804;2023-03-03T22:18:55;5.40;1.00
17621;DHT22;8929;51.008;6.804;2023-03-03T22:21:21;5.30;1.00
17621;DHT22;8929;51.008;6.804;2023-03-03T22:23:46;5.30;1.00
17621;DHT22;8929;51.008;6.804;2023-03-03T22:26:12;5.30;1.00
17621;DHT22;8929;51.008;6.804;2023-03-03T22:28:37;5.30;1.00
17621;DHT22;8929;51.008;6.804;2023-03-03T22:31:03;5.20;99.90
17621;DHT22;8929;51.008;6.804;2023-03-03T22:33:28;5.20;1.00
17621;DHT22;8929;51.008;6.804;2023-03-03T22:35:54;5.10;1.00
17621;DHT22;8929;51.008;6.804;2023-03-03T22:38:19;5.10;1.00
17621;DHT22;8929;51.008;6.804;2023-03-03T22:40:45;5.10;1.00
17621;DHT22;8929;51.008;6.804;2023-03-03T22:43:10;5.20;1.00
17621;DHT22;8929;51.008;6.804;2023-03-03T22:45:36;5.20;1.00
17621;DHT22;8929;51.008;6.804;2023-03-03T22:48:01;5.20;1.00
17621;DHT22;8929;51.008;6.804;2023-03-03T22:50:27;5.20;1.00
17621;DHT22;8929;51.008;6.804;2023-03-03T22:52:53;5.30;1.00
17621;DHT22;8929;51.008;6.804;2023-03-03T22:55:19;5.30;1.00
17621;DHT22;8929;51.008;6.804;2023-03-03T22:57:45;5.40;1.00
17621;DHT22;8929;51.008;6.804;2023-03-03T23:00:10;5.40;1.00
17621;DHT22;8929;51.008;6.804;2023-03-03T23:02:36;5.50;1.00
17621;DHT22;8929;51.008;6.804;2023-03-03T23:05:02;5.40;99.90
17621;DHT22;8929;51.008;6.804;2023-03-03T23:07:36;5.40;99.90
17621;DHT22;8929;51.008;6.804;2023-03-03T23:10:02;5.40;1.00
17621;DHT22;8929;51.008;6.804;2023-03-03T23:12:28;5.30;1.00
17621;DHT22;8929;51.008;6.804;2023-03-03T23:14:53;5.20;1.00
17621;DHT22;8929;51.008;6.804;2023-03-03T23:17:19;5.20;1.00
17621;DHT22;8929;51.008;6.804;2023-03-03T23:19:44;5.20;1.00
17621;DHT22;8929;51.008;6.804;2023-03-03T23:22:11;5.20;99.90
17621;DHT22;8929;51.008;6.804;2023-03-03T23:24:37;5.20;99.90
17621;DHT22;8929;51.008;6.804;2023-03-03T23:27:02;5.20;99.90
17621;DHT22;8929;51.008;6.804;2023-03-03T23:29:27;5.30;99.90
17621;DHT22;8929;51.008;6.804;2023-03-03T23:31:54;5.40;64.50
17621;DHT22;8929;51.008;6.804;2023-03-03T23:34:20;5.50;1.00
17621;DHT22;8929;51.008;6.804;2023-03-03T23:36:45;5.50;1.00
17621;DHT22;8929;51.008;6.804;2023-03-03T23:39:11;5.60;1.00
17621;DHT22;8929;51.008;6.804;2023-03-03T23:41:36;5.60;1.00
17621;DHT22;8929;51.008;6.804;2023-03-03T23:44:02;5.60;1.00
17621;DHT22;8929;51.008;6.804;2023-03-03T23:46:28;5.60;1.00
17621;DHT22;8929;51.008;6.804;2023-03-03T23:48:53;5.60;1.00
17621;DHT22;8929;51.008;6.804;2023-03-03T23:51:19;5.60;1.00
17621;DHT22;8929;51.008;6.804;2023-03-03T23:53:44;5.60;1.00
17621;DHT22;8929;51.008;6.804;2023-03-03T23:56:09;5.60;1.00
17621;DHT22;8929;51.008;6.804;2023-03-03T23:58:35;5.60;1.00
